createdAt,value
2022-09-18T00:01:24.677Z,14.50
2022-09-18T00:03:57.256Z,14.50
2022-09-18T00:06:26.821Z,14.40
2022-09-18T00:08:55.696Z,14.00
2022-09-18T00:11:24.344Z,13.90
2022-09-18T00:13:52.093Z,14.00
2022-09-18T00:16:21.421Z,13.90
2022-09-18T00:18:48.536Z,14.20
2022-09-18T00:21:18.555Z,14.30
2022-09-18T00:24:04.862Z,14.30
2022-09-18T00:26:31.648Z,13.80
2022-09-18T00:28:58.762Z,14.20
2022-09-18T00:31:29.856Z,14.40
2022-09-18T00:33:58.472Z,14.60
2022-09-18T00:36:25.796Z,14.50
2022-09-18T00:38:53.668Z,14.20
2022-09-18T00:41:26.165Z,14.40
2022-09-18T00:43:56.936Z,14.20
2022-09-18T00:46:36.296Z,14.40
2022-09-18T00:49:16.693Z,14.60
2022-09-18T00:51:45.755Z,14.20
2022-09-18T00:54:15.320Z,14.30
2022-09-18T00:56:44.456Z,14.20
2022-09-18T00:59:14.474Z,14.10
2022-09-18T01:01:41.418Z,14.40
2022-09-18T01:04:12.002Z,14.50
2022-09-18T01:06:50.400Z,14.90
2022-09-18T01:09:44.708Z,14.90
2022-09-18T01:12:27.406Z,14.40
2022-09-18T01:15:12.608Z,14.30
2022-09-18T01:17:58.016Z,14.10
2022-09-18T01:20:36.824Z,14.00
2022-09-18T01:23:20.202Z,14.40
2022-09-18T01:26:17.259Z,14.80
2022-09-18T01:28:48.094Z,14.60
2022-09-18T01:31:43.998Z,14.40
2022-09-18T01:34:13.496Z,14.30
2022-09-18T01:36:47.876Z,14.10
2022-09-18T01:39:22.511Z,14.00
2022-09-18T01:41:51.431Z,14.20
2022-09-18T01:44:23.259Z,14.00
2022-09-18T01:46:51.169Z,14.30
2022-09-18T01:49:26.046Z,13.90
2022-09-18T01:52:21.491Z,13.90
2022-09-18T01:54:50.474Z,14.30
2022-09-18T01:57:28.387Z,13.80
2022-09-18T02:00:00.999Z,13.70
2022-09-18T02:02:51.939Z,14.10
2022-09-18T02:05:24.820Z,13.40
2022-09-18T02:08:04.640Z,14.00
2022-09-18T02:10:35.050Z,14.00
2022-09-18T02:13:03.275Z,13.70
2022-09-18T02:15:35.799Z,13.60
2022-09-18T02:18:10.216Z,13.60
2022-09-18T02:20:40.804Z,14.10
2022-09-18T02:23:09.013Z,14.40
2022-09-18T02:25:50.226Z,14.10
2022-09-18T02:28:21.775Z,14.00
2022-09-18T02:30:48.665Z,14.00
2022-09-18T02:33:36.328Z,14.30
2022-09-18T02:36:33.732Z,14.80
2022-09-18T02:39:36.017Z,14.40
2022-09-18T02:42:38.716Z,13.90
2022-09-18T02:45:31.653Z,14.10
2022-09-18T02:48:23.087Z,14.40
2022-09-18T02:51:08.535Z,14.20
2022-09-18T02:53:49.875Z,14.20
2022-09-18T02:56:36.956Z,14.20
2022-09-18T02:59:17.059Z,14.00
2022-09-18T03:01:46.462Z,13.70
2022-09-18T03:04:21.379Z,13.60
2022-09-18T03:06:48.132Z,13.40
2022-09-18T03:09:16.222Z,13.20
2022-09-18T03:11:42.995Z,13.30
2022-09-18T03:14:09.630Z,13.40
2022-09-18T03:16:36.698Z,13.50
2022-09-18T03:19:08.604Z,13.80
2022-09-18T03:21:35.268Z,13.70
2022-09-18T03:24:02.608Z,13.10
2022-09-18T03:26:30.451Z,12.80
2022-09-18T03:28:57.285Z,12.50
2022-09-18T03:31:24.715Z,12.40
2022-09-18T03:33:51.402Z,12.90
2022-09-18T03:36:18.058Z,13.30
2022-09-18T03:38:45.758Z,13.80
2022-09-18T03:41:12.484Z,14.00
2022-09-18T03:43:39.768Z,13.90
2022-09-18T03:46:06.494Z,13.80
2022-09-18T03:48:34.348Z,13.80
2022-09-18T03:51:10.107Z,13.50
2022-09-18T03:54:06.341Z,13.50
2022-09-18T03:56:33.331Z,13.60
2022-09-18T03:59:00.000Z,13.80
2022-09-18T04:01:26.690Z,13.50
2022-09-18T04:03:53.459Z,13.20
2022-09-18T04:06:20.080Z,13.30
2022-09-18T04:08:46.799Z,13.50
2022-09-18T04:11:13.584Z,13.40
2022-09-18T04:13:40.286Z,13.60
2022-09-18T04:16:07.201Z,13.50
2022-09-18T04:18:34.163Z,13.50
2022-09-18T04:21:00.806Z,13.80
2022-09-18T04:23:27.574Z,14.00
2022-09-18T04:25:55.435Z,13.60
2022-09-18T04:28:22.074Z,14.00
2022-09-18T04:30:48.818Z,13.90
2022-09-18T04:33:16.186Z,13.60
2022-09-18T04:35:43.178Z,13.80
2022-09-18T04:38:09.972Z,13.40
2022-09-18T04:40:36.765Z,13.70
2022-09-18T04:43:05.433Z,14.10
2022-09-18T04:45:34.815Z,13.90
2022-09-18T04:48:02.219Z,14.10
2022-09-18T04:50:28.967Z,13.90
2022-09-18T04:52:55.774Z,14.20
2022-09-18T04:55:23.569Z,13.90
2022-09-18T04:57:54.414Z,13.90
2022-09-18T05:00:21.570Z,13.60
2022-09-18T05:02:48.368Z,13.70
2022-09-18T05:05:15.066Z,13.60
2022-09-18T05:07:43.987Z,13.50
2022-09-18T05:10:10.658Z,13.40
2022-09-18T05:12:41.986Z,13.50
2022-09-18T05:15:10.110Z,13.90
2022-09-18T05:17:39.850Z,13.70
2022-09-18T05:20:08.114Z,13.40
2022-09-18T05:22:35.175Z,13.80
2022-09-18T05:25:01.836Z,14.00
2022-09-18T05:27:28.508Z,13.90
2022-09-18T05:29:55.324Z,14.10
2022-09-18T05:32:22.279Z,13.10
2022-09-18T05:34:50.037Z,13.50
2022-09-18T05:37:30.037Z,13.90
2022-09-18T05:40:07.156Z,14.10
2022-09-18T05:42:33.849Z,13.80
2022-09-18T05:45:02.188Z,13.70
2022-09-18T05:47:32.447Z,13.80
2022-09-18T05:49:59.162Z,13.50
2022-09-18T05:52:25.847Z,13.30
2022-09-18T05:54:56.945Z,13.50
2022-09-18T05:57:23.616Z,13.20
2022-09-18T05:59:50.406Z,13.30
2022-09-18T06:02:17.216Z,13.80
2022-09-18T06:04:43.902Z,13.50
2022-09-18T06:07:12.964Z,13.80
2022-09-18T06:09:39.776Z,14.30
2022-09-18T06:12:06.794Z,14.50
2022-09-18T06:14:33.473Z,14.40
2022-09-18T06:17:00.302Z,14.40
2022-09-18T06:19:28.894Z,14.10
2022-09-18T06:24:42.343Z,14.50
2022-09-18T06:27:11.256Z,14.40
2022-09-18T06:29:37.937Z,14.50
2022-09-18T06:32:04.635Z,14.60
2022-09-18T06:34:33.573Z,14.60
2022-09-18T06:37:04.479Z,14.60
2022-09-18T06:39:31.115Z,14.30
2022-09-18T06:42:00.304Z,13.90
2022-09-18T06:44:27.044Z,13.90
2022-09-18T06:46:53.747Z,13.90
2022-09-18T06:49:20.471Z,14.10
2022-09-18T06:51:48.636Z,13.70
2022-09-18T06:54:17.012Z,13.40
2022-09-18T06:56:46.087Z,13.20
2022-09-18T06:59:13.288Z,13.10
2022-09-18T07:01:39.991Z,13.00
2022-09-18T07:04:06.789Z,12.80
2022-09-18T07:06:33.557Z,13.00
2022-09-18T07:09:00.392Z,13.20
2022-09-18T07:11:27.278Z,13.20
2022-09-18T07:13:55.251Z,13.10
2022-09-18T07:16:22.129Z,13.20
2022-09-18T07:18:49.294Z,13.40
2022-09-18T07:21:17.058Z,13.60
2022-09-18T07:23:56.196Z,14.00
2022-09-18T07:26:24.110Z,15.50
2022-09-18T07:28:52.408Z,15.80
2022-09-18T07:31:19.459Z,16.00
2022-09-18T07:33:51.670Z,15.90
2022-09-18T07:36:18.756Z,16.10
2022-09-18T07:38:48.909Z,16.10
2022-09-18T07:41:16.285Z,15.90
2022-09-18T07:43:43.046Z,15.90
2022-09-18T07:46:12.499Z,16.30
2022-09-18T07:48:39.272Z,16.40
2022-09-18T07:51:06.126Z,16.50
2022-09-18T07:53:33.583Z,16.50
2022-09-18T07:56:00.374Z,16.20
2022-09-18T07:58:27.164Z,16.30
2022-09-18T08:00:53.861Z,16.30
2022-09-18T08:03:20.629Z,16.40
2022-09-18T08:05:47.388Z,16.50
2022-09-18T08:08:16.652Z,16.80
2022-09-18T08:10:45.180Z,16.90
2022-09-18T08:13:12.736Z,17.20
2022-09-18T08:15:42.451Z,17.10
2022-09-18T08:18:11.554Z,17.00
2022-09-18T08:20:39.772Z,15.90
2022-09-18T08:23:11.073Z,14.60
2022-09-18T08:25:38.299Z,14.40
2022-09-18T08:28:06.601Z,14.20
2022-09-18T08:30:34.385Z,14.10
2022-09-18T08:33:03.299Z,14.00
2022-09-18T08:35:31.985Z,14.40
2022-09-18T08:37:59.573Z,14.70
2022-09-18T08:40:55.390Z,14.10
2022-09-18T08:43:27.855Z,14.20
2022-09-18T08:46:00.655Z,14.40
2022-09-18T08:48:39.200Z,14.50
2022-09-18T08:51:28.511Z,14.20
2022-09-18T08:54:01.784Z,14.30
2022-09-18T08:56:30.085Z,14.40
2022-09-18T08:59:00.708Z,14.40
2022-09-18T09:01:40.708Z,14.50
2022-09-18T09:04:23.692Z,14.20
2022-09-18T09:07:29.061Z,14.00
2022-09-18T09:10:30.101Z,14.00
2022-09-18T09:13:16.231Z,14.30
2022-09-18T09:15:42.886Z,14.20
2022-09-18T09:18:32.261Z,13.80
2022-09-18T09:21:23.148Z,14.10
2022-09-18T09:24:08.468Z,14.00
2022-09-18T09:26:35.772Z,14.40
2022-09-18T09:29:29.190Z,14.40
2022-09-18T09:32:08.027Z,14.10
2022-09-18T09:34:44.484Z,14.20
2022-09-18T09:37:23.853Z,14.50
2022-09-18T09:40:07.949Z,14.40
2022-09-18T09:42:41.825Z,14.50
2022-09-18T09:45:26.258Z,14.50
2022-09-18T09:48:22.893Z,14.60
2022-09-18T09:51:17.558Z,14.50
2022-09-18T09:53:44.906Z,14.40
2022-09-18T09:56:36.008Z,14.50
2022-09-18T09:59:28.868Z,14.70
2022-09-18T10:02:34.128Z,14.80
2022-09-18T10:05:29.315Z,14.80
2022-09-18T10:08:05.170Z,14.80
2022-09-18T10:10:41.364Z,14.60
2022-09-18T10:13:23.397Z,14.70
2022-09-18T10:16:08.573Z,14.80
2022-09-18T10:18:45.860Z,14.70
2022-09-18T10:21:26.330Z,14.30
2022-09-18T10:24:05.070Z,14.60
2022-09-18T10:26:37.928Z,14.90
2022-09-18T10:29:04.746Z,14.90
2022-09-18T10:31:50.445Z,15.20
2022-09-18T10:34:43.447Z,15.00
2022-09-18T10:37:17.763Z,15.10
2022-09-18T10:39:52.937Z,15.30
2022-09-18T10:42:22.984Z,14.90
2022-09-18T10:44:55.812Z,15.10
2022-09-18T10:47:29.059Z,15.00
2022-09-18T10:50:06.380Z,14.80
2022-09-18T10:52:33.108Z,14.80
2022-09-18T10:55:06.080Z,14.50
2022-09-18T10:57:43.864Z,14.90
2022-09-18T11:00:19.399Z,14.40
2022-09-18T11:02:59.611Z,15.20
2022-09-18T11:05:37.581Z,14.90
2022-09-18T11:08:14.200Z,15.30
2022-09-18T11:10:46.915Z,15.20
2022-09-18T11:13:25.875Z,15.10
2022-09-18T11:15:58.205Z,15.30
2022-09-18T11:18:26.530Z,15.00
2022-09-18T11:20:55.238Z,14.90
2022-09-18T11:23:36.304Z,15.00
2022-09-18T11:26:28.456Z,14.80
2022-09-18T11:29:32.221Z,15.00
2022-09-18T11:32:17.358Z,14.90
2022-09-18T11:34:57.823Z,14.80
2022-09-18T11:37:36.071Z,14.90
2022-09-18T11:40:28.235Z,14.70
2022-09-18T11:42:55.916Z,14.90
2022-09-18T11:45:42.947Z,15.00
2022-09-18T11:48:29.055Z,14.80
2022-09-18T11:50:59.411Z,14.80
2022-09-18T11:53:46.004Z,15.00
2022-09-18T11:56:29.919Z,15.10
2022-09-18T11:59:05.920Z,15.00
2022-09-18T12:01:45.724Z,15.00
2022-09-18T12:04:27.758Z,15.00
2022-09-18T12:07:15.359Z,15.10
2022-09-18T12:10:01.166Z,15.00
2022-09-18T12:12:38.250Z,14.90
2022-09-18T12:15:18.511Z,15.00
2022-09-18T12:17:56.403Z,15.20
2022-09-18T12:20:40.210Z,15.00
2022-09-18T12:23:14.165Z,14.80
2022-09-18T12:26:01.943Z,15.10
2022-09-18T12:28:57.722Z,15.20
2022-09-18T12:31:32.454Z,15.20
2022-09-18T12:34:11.398Z,15.40
2022-09-18T12:36:43.902Z,15.20
2022-09-18T12:39:27.479Z,15.10
2022-09-18T12:42:31.564Z,14.90
2022-09-18T12:45:29.815Z,14.90
2022-09-18T12:48:15.330Z,14.90
2022-09-18T12:50:51.438Z,14.70
2022-09-18T12:53:24.525Z,14.40
2022-09-18T12:56:10.072Z,14.70
2022-09-18T12:59:05.999Z,14.50
2022-09-18T13:01:54.825Z,15.30
2022-09-18T13:04:40.670Z,15.20
2022-09-18T13:07:16.570Z,14.90
2022-09-18T13:09:59.307Z,14.80
2022-09-18T13:12:39.715Z,14.50
2022-09-18T13:15:16.150Z,14.50
2022-09-18T13:17:53.327Z,14.60
2022-09-18T13:20:27.710Z,14.80
2022-09-18T13:22:55.546Z,14.30
2022-09-18T13:25:30.036Z,14.30
2022-09-18T13:27:59.636Z,14.40
2022-09-18T13:30:31.298Z,14.70
2022-09-18T13:33:02.229Z,14.50
2022-09-18T13:35:37.560Z,14.20
2022-09-18T13:38:19.769Z,14.60
2022-09-18T13:40:59.186Z,14.50
2022-09-18T13:43:28.916Z,14.40
2022-09-18T13:45:57.681Z,14.30
2022-09-18T13:48:32.379Z,14.30
2022-09-18T13:51:04.725Z,14.30
2022-09-18T13:53:40.747Z,13.90
2022-09-18T13:56:13.012Z,13.30
2022-09-18T13:58:50.168Z,13.30
2022-09-18T14:01:41.981Z,13.70
2022-09-18T14:04:39.589Z,13.80
2022-09-18T14:07:25.372Z,14.00
2022-09-18T14:10:04.246Z,14.10
2022-09-18T14:12:34.584Z,13.90
2022-09-18T14:15:06.551Z,13.60
2022-09-18T14:17:35.376Z,14.10
2022-09-18T14:20:11.112Z,14.10
2022-09-18T14:22:40.335Z,14.20
2022-09-18T14:25:11.434Z,13.80
2022-09-18T14:28:03.327Z,13.90
2022-09-18T14:30:31.316Z,13.80
2022-09-18T14:33:15.987Z,14.30
2022-09-18T14:36:04.426Z,13.90
2022-09-18T14:38:36.735Z,13.90
2022-09-18T14:41:11.433Z,13.70
2022-09-18T14:44:07.644Z,13.80
2022-09-18T14:46:51.566Z,15.30
2022-09-18T14:49:34.678Z,14.30
2022-09-18T14:52:04.649Z,14.30
2022-09-18T14:54:40.882Z,14.60
2022-09-18T14:57:13.049Z,15.00
2022-09-18T14:59:40.505Z,14.90
2022-09-18T15:02:22.684Z,15.00
2022-09-18T15:04:49.888Z,15.30
2022-09-18T15:07:21.859Z,15.30
2022-09-18T15:09:52.902Z,15.20
2022-09-18T15:12:23.201Z,15.00
2022-09-18T15:14:50.370Z,14.90
2022-09-18T15:17:26.698Z,14.90
2022-09-18T15:20:23.804Z,14.80
2022-09-18T15:22:52.547Z,14.60
2022-09-18T15:25:28.075Z,14.30
2022-09-18T15:27:56.572Z,14.60
2022-09-18T15:30:25.500Z,14.50
2022-09-18T15:33:00.295Z,14.50
2022-09-18T15:35:36.404Z,15.00
2022-09-18T15:38:18.257Z,14.90
2022-09-18T15:40:47.180Z,14.50
2022-09-18T15:43:33.665Z,14.50
2022-09-18T15:46:06.821Z,14.50
2022-09-18T15:48:34.053Z,14.60
2022-09-18T15:51:30.837Z,14.20
2022-09-18T15:54:13.212Z,14.00
2022-09-18T15:56:50.720Z,13.90
2022-09-18T15:59:30.757Z,13.90
2022-09-18T16:01:59.196Z,14.10
2022-09-18T16:04:33.407Z,14.30
2022-09-18T16:07:01.763Z,14.10
2022-09-18T16:09:41.796Z,14.30
2022-09-18T16:12:31.474Z,13.90
2022-09-18T16:15:18.612Z,13.80
2022-09-18T16:17:45.281Z,14.10
2022-09-18T16:20:31.529Z,14.40
2022-09-18T16:23:24.074Z,14.60
2022-09-18T16:26:13.752Z,14.60
2022-09-18T16:28:45.932Z,14.50
2022-09-18T16:31:15.085Z,14.80
2022-09-18T16:34:16.080Z,14.80
2022-09-18T16:36:43.228Z,14.70
2022-09-18T16:39:19.163Z,14.80
2022-09-18T16:41:46.599Z,14.80
2022-09-18T16:44:27.833Z,14.80
2022-09-18T16:47:20.577Z,15.10
2022-09-18T16:49:49.382Z,14.70
2022-09-18T16:52:17.216Z,14.90
2022-09-18T16:54:43.931Z,14.70
2022-09-18T16:57:55.684Z,14.80
2022-09-18T17:00:38.970Z,14.60
2022-09-18T17:03:07.025Z,14.60
2022-09-18T17:06:02.372Z,14.60
2022-09-18T17:08:37.146Z,14.80
2022-09-18T17:11:14.869Z,14.70
2022-09-18T17:13:48.550Z,14.20
2022-09-18T17:16:35.260Z,14.20
2022-09-18T17:19:06.264Z,14.20
2022-09-18T17:21:40.297Z,14.10
2022-09-18T17:24:17.549Z,14.40
2022-09-18T17:26:44.351Z,14.30
2022-09-18T17:29:25.217Z,14.60
2022-09-18T17:31:57.387Z,14.60
2022-09-18T17:34:39.668Z,14.20
2022-09-18T17:37:19.514Z,14.30
2022-09-18T17:39:56.240Z,14.10
2022-09-18T17:42:39.437Z,13.80
2022-09-18T17:45:36.256Z,13.90
2022-09-18T17:48:22.482Z,13.70
2022-09-18T17:51:18.635Z,13.80
2022-09-18T17:54:03.131Z,13.90
2022-09-18T17:56:37.895Z,13.90
2022-09-18T17:59:18.940Z,13.70
2022-09-18T18:02:13.030Z,13.70
2022-09-18T18:04:40.872Z,13.50
2022-09-18T18:07:09.696Z,13.50
2022-09-18T18:09:37.548Z,13.40
2022-09-18T18:12:36.731Z,13.40
2022-09-18T18:15:06.955Z,13.40
2022-09-18T18:17:34.718Z,13.30
2022-09-18T18:20:03.416Z,13.10
2022-09-18T18:22:30.999Z,12.90
2022-09-18T18:24:57.767Z,12.70
2022-09-18T18:27:24.795Z,12.60
2022-09-18T18:29:52.460Z,12.50
2022-09-18T18:32:19.665Z,13.00
2022-09-18T18:34:47.457Z,12.70
2022-09-18T18:37:14.605Z,12.60
2022-09-18T18:39:41.527Z,12.70
2022-09-18T18:42:10.818Z,12.80
2022-09-18T18:44:38.465Z,12.80
2022-09-18T18:47:05.410Z,12.70
2022-09-18T18:49:32.898Z,12.60
2022-09-18T18:52:03.452Z,12.90
2022-09-18T18:54:31.600Z,13.10
2022-09-18T18:56:58.261Z,13.00
2022-09-18T18:59:25.612Z,13.40
2022-09-18T19:01:56.695Z,13.20
2022-09-18T19:04:24.043Z,12.90
2022-09-18T19:06:51.648Z,13.10
2022-09-18T19:09:24.409Z,13.00
2022-09-18T19:11:52.828Z,13.50
2022-09-18T19:14:29.605Z,13.20
2022-09-18T19:16:56.587Z,13.10
2022-09-18T19:19:33.450Z,13.20
2022-09-18T19:22:00.126Z,13.10
2022-09-18T19:24:28.152Z,13.00
2022-09-18T19:26:55.090Z,13.30
2022-09-18T19:29:21.972Z,13.10
2022-09-18T19:31:50.405Z,13.20
2022-09-18T19:34:19.944Z,13.10
2022-09-18T19:36:50.103Z,13.00
2022-09-18T19:39:18.723Z,13.00
2022-09-18T19:42:03.258Z,12.90
2022-09-18T19:44:53.000Z,12.70
2022-09-18T19:47:46.365Z,12.60
2022-09-18T19:50:25.110Z,12.30
2022-09-18T19:52:52.001Z,12.40
2022-09-18T19:55:20.821Z,12.60
2022-09-18T19:57:53.093Z,12.30
2022-09-18T20:00:20.376Z,12.70
2022-09-18T20:02:47.080Z,12.70
2022-09-18T20:05:13.783Z,12.60
2022-09-18T20:07:41.647Z,12.30
2022-09-18T20:10:14.332Z,12.40
2022-09-18T20:12:42.230Z,12.30
2022-09-18T20:15:09.979Z,12.30
2022-09-18T20:17:38.122Z,12.10
2022-09-18T20:20:08.833Z,12.00
2022-09-18T20:22:39.700Z,12.10
2022-09-18T20:25:08.104Z,12.70
2022-09-18T20:27:40.978Z,12.70
2022-09-18T20:30:10.725Z,12.80
2022-09-18T20:32:37.634Z,13.40
2022-09-18T20:35:05.128Z,13.60
2022-09-18T20:37:32.951Z,14.10
2022-09-18T20:40:03.417Z,14.30
2022-09-18T20:42:31.642Z,14.40
2022-09-18T20:45:02.158Z,14.50
2022-09-18T20:47:35.901Z,14.40
2022-09-18T20:50:13.694Z,14.30
2022-09-18T20:52:43.110Z,14.30
2022-09-18T20:55:13.544Z,14.30
2022-09-18T20:57:40.748Z,14.30
2022-09-18T21:00:10.303Z,14.50
2022-09-18T21:02:38.158Z,14.40
2022-09-18T21:05:11.493Z,14.50
2022-09-18T21:07:38.234Z,14.50
2022-09-18T21:10:06.995Z,14.60
2022-09-18T21:12:40.481Z,14.60
2022-09-18T21:15:09.650Z,14.50
2022-09-18T21:17:39.095Z,14.40
2022-09-18T21:20:06.553Z,14.70
2022-09-18T21:22:33.395Z,14.80
2022-09-18T21:25:00.061Z,14.70
2022-09-18T21:27:27.175Z,14.40
2022-09-18T21:29:56.411Z,14.60
2022-09-18T21:32:23.429Z,14.60
2022-09-18T21:34:52.773Z,14.80
2022-09-18T21:37:19.480Z,14.70
2022-09-18T21:39:52.483Z,14.70
2022-09-18T21:42:19.189Z,14.70
2022-09-18T21:44:45.820Z,14.80
2022-09-18T21:47:13.065Z,14.80
2022-09-18T21:49:39.739Z,14.80
2022-09-18T21:52:09.208Z,14.90
2022-09-18T21:54:36.066Z,15.00
2022-09-18T21:57:03.604Z,15.00
2022-09-18T21:59:31.493Z,15.00
2022-09-18T22:01:59.135Z,14.80
2022-09-18T22:04:29.793Z,14.70
2022-09-18T22:06:58.200Z,14.60
2022-09-18T22:09:27.950Z,14.70
2022-09-18T22:11:55.371Z,14.90
2022-09-18T22:14:24.923Z,14.90
2022-09-18T22:16:53.693Z,14.70
2022-09-18T22:19:23.778Z,14.60
2022-09-18T22:21:51.664Z,14.40
2022-09-18T22:24:21.569Z,14.70
2022-09-18T22:26:51.523Z,14.80
2022-09-18T22:29:22.043Z,14.80
2022-09-18T22:31:49.610Z,14.80
2022-09-18T22:34:18.475Z,14.90
2022-09-18T22:36:47.000Z,14.70
2022-09-18T22:39:16.361Z,14.70
2022-09-18T22:41:43.879Z,14.80
2022-09-18T22:44:11.687Z,14.60
2022-09-18T22:46:40.455Z,14.90
2022-09-18T22:49:08.797Z,14.80
2022-09-18T22:51:35.502Z,14.70
2022-09-18T22:54:07.710Z,14.80
2022-09-18T22:56:41.565Z,14.70
2022-09-18T22:59:11.776Z,14.80
2022-09-18T23:01:42.533Z,14.70
2022-09-18T23:04:09.942Z,14.80
2022-09-18T23:06:36.757Z,14.90
2022-09-18T23:09:04.716Z,14.70
2022-09-18T23:11:33.561Z,14.40
2022-09-18T23:14:06.024Z,14.30
2022-09-18T23:16:35.250Z,14.50
2022-09-18T23:19:20.878Z,14.70
2022-09-18T23:21:49.488Z,14.60
2022-09-18T23:24:16.651Z,14.60
2022-09-18T23:26:45.865Z,14.50
2022-09-18T23:29:15.459Z,14.70
2022-09-18T23:31:44.503Z,14.70
2022-09-18T23:34:19.595Z,14.70
2022-09-18T23:36:49.614Z,14.70
2022-09-18T23:39:22.806Z,14.70
2022-09-18T23:41:50.299Z,14.70
2022-09-18T23:44:18.660Z,14.60
2022-09-18T23:46:46.352Z,14.60
2022-09-18T23:49:14.378Z,14.60
2022-09-18T23:51:46.310Z,14.60
2022-09-18T23:54:19.217Z,14.70
2022-09-18T23:56:46.607Z,14.70
2022-09-18T23:59:14.883Z,14.60
